Time;durP1;ratioP1;P1;durP2;ratioP2;P2;SDS_P1;SDS_P2;PMS_P1;PMS_P2;Temp;Humidity;BMP_temperature;BMP_pressure;BME280_temperature;BME280_humidity;BME280_pressure;Samples;Min_cycle;Max_cycle;Signal;HPM_P1;HPM_P2
2021/12/16 00:08:16;;;;;;;17.52;10.93;;;22.90;43.50;;;;;;6143697;28;85400;-65
2021/12/16 00:31:20;;;;;;;17.70;11.15;;;22.80;43.30;;;;;;6166723;27;83800;-66
2021/12/16 00:34:22;;;;;;;18.23;10.40;;;22.90;43.50;;;;;;6169372;28;86383;-66
2021/12/16 00:37:23;;;;;;;15.60;9.75;;;22.80;43.60;;;;;;6166457;28;83562;-66
2021/12/16 00:40:23;;;;;;;15.45;8.93;;;22.80;43.60;;;;;;6175475;27;84406;-66
2021/12/16 00:43:38;;;;;;;17.13;10.13;;;22.90;43.70;;;;;;6165185;28;80584;-66
2021/12/16 00:47:02;;;;;;;20.40;11.10;;;22.80;43.50;;;;;;6165134;28;83288;-66
2021/12/16 00:50:21;;;;;;;15.32;10.50;;;22.80;43.50;;;;;;6152840;28;83402;-65
2021/12/16 00:57:04;;;;;;;15.88;9.55;;;22.80;43.20;;;;;;6106482;28;85922;-66
2021/12/16 01:00:07;;;;;;;16.77;10.05;;;22.80;43.50;;;;;;6182804;28;86398;-65
2021/12/16 01:51:53;;;;;;;16.33;9.52;;;22.80;43.70;;;;;;6162338;28;85514;-65
2021/12/16 01:57:58;;;;;;;18.40;9.88;;;22.80;43.60;;;;;;6172826;27;83687;-66
2021/12/16 02:01:17;;;;;;;15.85;9.38;;;22.80;43.40;;;;;;6192022;28;84917;-65
2021/12/16 02:04:26;;;;;;;17.88;10.85;;;22.80;43.40;;;;;;6208292;28;83396;-66
2021/12/16 02:07:49;;;;;;;16.13;9.90;;;22.80;43.50;;;;;;6156133;28;83746;-66
2021/12/16 02:10:55;;;;;;;17.63;9.65;;;22.80;44.00;;;;;;6201889;28;84570;-66
2021/12/16 02:37:10;;;;;;;16.73;9.83;;;22.80;43.70;;;;;;6181229;28;83315;-66
2021/12/16 02:40:11;;;;;;;18.17;10.13;;;22.80;44.00;;;;;;6160923;28;85468;-65
2021/12/16 02:49:25;;;;;;;17.92;10.02;;;22.80;43.90;;;;;;6176046;28;81433;-65
2021/12/16 02:52:25;;;;;;;18.05;10.50;;;22.80;43.80;;;;;;6166009;28;83373;-65
2021/12/16 02:55:26;;;;;;;15.00;9.50;;;22.80;43.70;;;;;;6173841;28;83061;-65
2021/12/16 02:58:26;;;;;;;16.98;9.90;;;22.80;43.90;;;;;;6142458;28;84604;-65
2021/12/16 03:01:29;;;;;;;16.90;10.00;;;22.80;43.70;;;;;;6164784;28;81440;-65
2021/12/16 03:04:30;;;;;;;17.75;10.27;;;22.80;43.80;;;;;;6166702;28;83045;-65
2021/12/16 03:07:31;;;;;;;17.05;9.95;;;22.80;43.80;;;;;;6158004;28;85478;-66
2021/12/16 03:17:09;;;;;;;20.58;10.98;;;22.80;43.70;;;;;;6167044;28;82855;-66
2021/12/16 03:20:25;;;;;;;15.98;10.05;;;22.80;43.10;;;;;;6163644;28;86347;-65
2021/12/16 03:23:58;;;;;;;17.35;9.98;;;22.80;42.80;;;;;;6159947;28;85959;-65
2021/12/16 03:37:17;;;;;;;18.17;10.38;;;22.90;42.70;;;;;;6175767;28;84472;-66
2021/12/16 03:40:17;;;;;;;18.95;11.20;;;23.00;42.70;;;;;;6162865;28;83040;-67
2021/12/16 03:43:18;;;;;;;19.83;10.98;;;23.00;42.60;;;;;;6163490;28;84612;-66
2021/12/16 03:46:25;;;;;;;17.70;10.68;;;23.00;42.60;;;;;;6163916;28;85860;-66
2021/12/16 03:49:26;;;;;;;17.23;10.27;;;23.10;42.60;;;;;;6175065;28;85831;-65
2021/12/16 03:52:30;;;;;;;17.20;9.85;;;23.10;42.60;;;;;;6171981;27;85530;-66
2021/12/16 03:55:31;;;;;;;16.08;10.63;;;23.10;42.50;;;;;;6195220;28;85703;-66
2021/12/16 03:58:31;;;;;;;15.48;10.05;;;23.10;42.50;;;;;;6163180;27;83164;-65
2021/12/16 04:01:32;;;;;;;15.80;9.77;;;23.10;42.60;;;;;;6167399;27;86166;-66
2021/12/16 04:04:33;;;;;;;17.63;10.00;;;23.20;42.60;;;;;;6211196;27;84653;-66
2021/12/16 04:07:36;;;;;;;17.08;10.43;;;23.20;42.60;;;;;;6176679;28;83781;-66
2021/12/16 04:11:01;;;;;;;16.67;10.57;;;23.20;42.60;;;;;;6161185;28;86503;-66
2021/12/16 04:14:05;;;;;;;18.52;11.02;;;23.20;42.50;;;;;;6162375;28;83449;-66
2021/12/16 04:17:11;;;;;;;;;;;23.20;42.50;;;;;;6190635;28;86149;-66
2021/12/16 04:20:29;;;;;;;16.48;9.32;;;23.30;42.50;;;;;;6203090;27;85864;-65
2021/12/16 04:23:30;;;;;;;18.83;10.45;;;23.30;42.40;;;;;;6176708;28;81018;-65
2021/12/16 04:26:32;;;;;;;16.95;10.23;;;23.30;42.40;;;;;;6173978;28;82936;-65
2021/12/16 04:29:32;;;;;;;17.05;10.85;;;23.30;42.50;;;;;;6171867;28;86231;-66
2021/12/16 04:32:33;;;;;;;18.58;10.70;;;23.30;42.50;;;;;;6163841;28;85760;-66
2021/12/16 04:35:34;;;;;;;17.02;10.38;;;23.30;42.40;;;;;;6165523;28;85480;-66
2021/12/16 04:38:38;;;;;;;16.50;10.20;;;23.40;42.50;;;;;;6164403;27;82829;-66
2021/12/16 04:45:52;;;;;;;16.40;10.90;;;23.30;42.50;;;;;;6109761;28;85924;-67
2021/12/16 04:52:51;;;;;;;19.92;10.32;;;23.40;42.50;;;;;;6163044;27;82984;-67
2021/12/16 04:56:10;;;;;;;;;;;;;;;;;;;;;
2021/12/16 05:14:56;;;;;;;18.52;11.43;;;23.50;43.00;;;;;;6079676;28;83144;-64
2021/12/16 05:29:00;;;;;;;20.20;11.38;;;23.60;43.30;;;;;;6052477;28;85512;-62
2021/12/16 05:32:02;;;;;;;20.08;11.82;;;23.60;43.70;;;;;;6106130;28;86337;-64
2021/12/16 05:35:03;;;;;;;14.40;10.10;;;23.60;43.80;;;;;;6156676;28;84424;-63
2021/12/16 05:38:03;;;;;;;17.13;10.00;;;23.60;44.20;;;;;;6155474;28;85943;-64
2021/12/16 05:41:04;;;;;;;12.40;7.60;;;23.50;45.40;;;;;;6188765;28;84947;-64
2021/12/16 05:44:09;;;;;;;11.70;7.00;;;23.40;46.30;;;;;;6158519;28;85626;-63
2021/12/16 05:47:10;;;;;;;9.82;5.55;;;23.30;46.90;;;;;;6158557;28;83443;-63
2021/12/16 05:50:10;;;;;;;10.45;6.20;;;23.30;47.50;;;;;;6158424;28;82176;-62
2021/12/16 05:53:11;;;;;;;11.60;6.18;;;23.30;48.30;;;;;;6160861;28;80673;-65
2021/12/16 05:56:12;;;;;;;9.95;6.10;;;23.40;49.70;;;;;;6141236;28;82294;-66
2021/12/16 05:59:17;;;;;;;9.60;6.22;;;23.40;50.10;;;;;;6176520;28;83680;-65
2021/12/16 06:02:18;;;;;;;9.85;6.28;;;23.40;50.40;;;;;;6159361;28;81054;-65
2021/12/16 06:05:19;;;;;;;11.48;6.18;;;23.40;50.80;;;;;;6157714;28;82074;-64
2021/12/16 06:08:19;;;;;;;12.63;6.18;;;23.40;50.90;;;;;;6158558;28;82378;-66
2021/12/16 06:11:24;;;;;;;13.18;5.28;;;23.40;51.50;;;;;;6158787;28;82683;-65
2021/12/16 06:14:46;;;;;;;9.30;5.80;;;23.40;51.40;;;;;;6159500;28;81599;-66
2021/12/16 06:27:46;;;;;;;9.60;5.53;;;23.30;52.90;;;;;;6158264;28;83630;-65
2021/12/16 06:30:46;;;;;;;8.85;5.53;;;23.30;53.60;;;;;;6160637;27;80299;-67
2021/12/16 06:33:47;;;;;;;13.85;7.00;;;23.20;54.00;;;;;;6159824;28;81417;-65
2021/12/16 06:36:47;;;;;;;9.50;4.95;;;23.30;53.90;;;;;;6159750;28;80478;-67
2021/12/16 06:39:48;;;;;;;11.52;4.82;;;23.40;53.90;;;;;;6158361;28;82935;-65
2021/12/16 06:43:00;;;;;;;9.40;6.03;;;23.40;53.30;;;;;;6192474;28;82110;-64
2021/12/16 06:46:04;;;;;;;11.75;5.60;;;23.40;53.50;;;;;;6189565;28;83253;-65
2021/12/16 06:49:05;;;;;;;11.75;6.50;;;23.40;53.60;;;;;;6154120;28;83658;-65
2021/12/16 06:52:08;;;;;;;11.57;6.38;;;23.40;53.60;;;;;;6158226;28;83344;-64
2021/12/16 06:55:26;;;;;;;15.05;6.85;;;23.40;54.20;;;;;;6160361;28;81358;-62
2021/12/16 07:01:38;;;;;;;12.25;6.68;;;23.40;53.70;;;;;;6159421;28;80890;-66
2021/12/16 07:04:38;;;;;;;11.43;6.43;;;23.40;53.90;;;;;;6159148;28;81861;-65
2021/12/16 07:07:39;;;;;;;10.27;6.00;;;23.40;53.80;;;;;;6157151;28;82736;-65
2021/12/16 07:10:40;;;;;;;11.05;6.57;;;23.30;53.50;;;;;;6155668;28;80596;-66
2021/12/16 07:13:42;;;;;;;19.00;10.00;;;23.30;53.40;;;;;;6155684;28;80637;-66
2021/12/16 07:16:42;;;;;;;22.10;11.40;;;23.30;52.80;;;;;;6154144;28;84192;-65
2021/12/16 07:19:43;;;;;;;20.17;12.38;;;23.30;51.10;;;;;;6163509;28;84182;-67
2021/12/16 07:22:43;;;;;;;25.60;11.45;;;23.30;49.80;;;;;;6156704;28;83269;-66
2021/12/16 07:25:44;;;;;;;19.52;11.00;;;23.30;49.90;;;;;;6164270;28;82969;-65
2021/12/16 07:28:44;;;;;;;21.10;10.70;;;23.20;49.60;;;;;;6159963;28;83072;-66
2021/12/16 07:31:45;;;;;;;17.80;9.38;;;23.10;49.40;;;;;;6166472;28;83412;-65
2021/12/16 07:34:46;;;;;;;18.70;10.30;;;23.10;49.60;;;;;;6160143;28;82839;-65
2021/12/16 07:37:46;;;;;;;14.43;8.98;;;23.10;49.60;;;;;;6155612;28;84385;-68
2021/12/16 07:40:47;;;;;;;17.52;9.85;;;23.10;49.30;;;;;;6184788;28;85784;-68
2021/12/16 07:43:58;;;;;;;15.60;9.75;;;23.10;49.40;;;;;;6159033;28;80353;-66
2021/12/16 07:46:59;;;;;;;15.00;8.70;;;23.10;49.20;;;;;;6155557;28;81389;-65
2021/12/16 07:50:00;;;;;;;12.52;8.20;;;23.10;49.40;;;;;;6158124;28;80620;-63
2021/12/16 07:53:00;;;;;;;14.00;7.70;;;23.10;49.40;;;;;;6153171;28;80892;-64
2021/12/16 07:56:01;;;;;;;11.25;7.53;;;23.10;49.60;;;;;;6154273;28;81507;-64
2021/12/16 07:59:01;;;;;;;13.60;8.30;;;23.10;49.60;;;;;;6156174;28;81608;-65
2021/12/16 08:02:02;;;;;;;12.18;7.25;;;23.10;50.30;;;;;;6158983;28;81378;-65
2021/12/16 08:05:03;;;;;;;10.63;7.32;;;23.10;49.90;;;;;;6157578;28;80817;-64
2021/12/16 08:08:03;;;;;;;11.35;7.55;;;23.10;49.80;;;;;;6161635;28;81215;-64
2021/12/16 08:11:04;;;;;;;11.93;6.72;;;23.10;49.70;;;;;;6161842;28;80552;-63
2021/12/16 08:14:04;;;;;;;13.80;7.57;;;23.10;49.70;;;;;;6167078;28;80402;-63
2021/12/16 08:17:05;;;;;;;10.77;6.05;;;23.10;49.60;;;;;;6153638;28;81208;-64
2021/12/16 08:20:06;;;;;;;9.70;5.93;;;23.10;49.60;;;;;;6164056;28;81637;-65
2021/12/16 08:23:07;;;;;;;9.95;6.32;;;23.10;49.70;;;;;;6175228;28;83356;-64
2021/12/16 08:26:08;;;;;;;10.10;6.68;;;23.10;49.60;;;;;;6167696;28;80982;-64
2021/12/16 08:29:08;;;;;;;10.15;6.20;;;23.10;49.60;;;;;;6156894;28;81700;-66
2021/12/16 08:32:09;;;;;;;10.02;5.30;;;23.10;49.60;;;;;;6161735;28;80516;-65
2021/12/16 08:35:09;;;;;;;9.48;5.60;;;23.10;49.50;;;;;;6162734;28;80685;-65
2021/12/16 08:38:10;;;;;;;8.93;5.47;;;23.10;49.30;;;;;;6172227;28;80968;-64
2021/12/16 08:41:11;;;;;;;8.43;5.40;;;23.10;48.90;;;;;;6161977;28;81710;-64
2021/12/16 08:44:11;;;;;;;8.80;5.47;;;23.10;48.80;;;;;;6169062;28;80380;-64
2021/12/16 08:47:12;;;;;;;11.45;6.10;;;23.10;48.40;;;;;;6163368;28;80344;-62
2021/12/16 08:50:12;;;;;;;9.50;5.93;;;23.10;48.40;;;;;;6162880;28;80898;-66
2021/12/16 08:53:13;;;;;;;15.13;6.18;;;23.10;48.20;;;;;;6160087;28;80957;-66
2021/12/16 08:56:13;;;;;;;11.35;5.82;;;23.10;48.60;;;;;;6169336;28;80716;-63
2021/12/16 08:59:14;;;;;;;9.55;5.40;;;23.10;48.50;;;;;;6163758;28;80472;-63
2021/12/16 09:02:14;;;;;;;11.48;5.25;;;23.10;48.30;;;;;;6161034;28;81334;-63
2021/12/16 09:05:15;;;;;;;13.82;6.55;;;23.10;48.10;;;;;;6160622;28;80234;-63
2021/12/16 09:08:15;;;;;;;11.52;5.72;;;23.10;47.60;;;;;;6161647;28;80568;-64
2021/12/16 09:11:20;;;;;;;13.35;6.90;;;23.10;47.60;;;;;;6171549;28;81265;-64
2021/12/16 09:14:20;;;;;;;16.10;7.30;;;23.10;46.90;;;;;;6159900;28;81436;-64
2021/12/16 09:17:21;;;;;;;11.55;6.82;;;22.90;46.80;;;;;;6174811;28;80506;-63
2021/12/16 09:20:21;;;;;;;11.13;5.80;;;22.90;46.60;;;;;;6164840;28;80499;-66
2021/12/16 09:23:22;;;;;;;14.70;6.72;;;23.00;46.50;;;;;;6174368;28;80552;-65
2021/12/16 09:26:22;;;;;;;11.00;6.32;;;23.00;46.40;;;;;;6161789;28;80326;-65
2021/12/16 09:29:23;;;;;;;10.10;5.85;;;23.00;46.10;;;;;;6158788;28;80917;-64
2021/12/16 09:32:27;;;;;;;12.02;5.88;;;23.00;46.00;;;;;;6161796;28;80265;-65
2021/12/16 09:35:27;;;;;;;9.52;5.88;;;23.00;45.80;;;;;;6160785;28;81729;-64
2021/12/16 09:38:28;;;;;;;10.50;6.53;;;23.10;45.70;;;;;;6173696;28;81564;-62
2021/12/16 09:41:29;;;;;;;11.35;6.13;;;23.10;45.60;;;;;;6191626;28;81973;-65
2021/12/16 09:44:29;;;;;;;12.68;6.38;;;23.10;45.40;;;;;;6159693;28;80322;-69
2021/12/16 09:47:30;;;;;;;10.07;6.65;;;23.10;45.40;;;;;;6159343;28;80633;-65
2021/12/16 09:50:30;;;;;;;10.77;5.55;;;23.20;45.40;;;;;;6147398;28;80688;-65
2021/12/16 09:53:31;;;;;;;11.40;6.50;;;23.20;45.30;;;;;;6157761;28;86053;-65
2021/12/16 09:56:31;;;;;;;11.07;6.07;;;23.20;45.30;;;;;;6158505;28;81789;-65
2021/12/16 09:59:32;;;;;;;8.98;5.38;;;23.30;45.30;;;;;;6158516;28;80373;-64
2021/12/16 10:02:34;;;;;;;15.70;6.10;;;23.20;45.70;;;;;;6159640;28;81601;-66
2021/12/16 10:05:34;;;;;;;8.77;6.00;;;23.30;45.50;;;;;;6158417;28;80793;-64
2021/12/16 10:08:36;;;;;;;10.60;6.22;;;23.30;45.60;;;;;;6158761;28;80648;-66
2021/12/16 10:11:36;;;;;;;10.95;6.25;;;23.30;45.70;;;;;;6160896;28;80303;-65
2021/12/16 10:17:56;;;;;;;12.90;6.70;;;23.40;45.80;;;;;;6158376;28;81635;-66
2021/12/16 10:20:56;;;;;;;8.60;6.05;;;23.40;45.80;;;;;;6161961;28;80700;-66
2021/12/16 10:23:57;;;;;;;10.75;6.53;;;23.40;45.70;;;;;;6163997;28;81615;-66
2021/12/16 10:26:57;;;;;;;9.48;5.80;;;23.40;45.80;;;;;;6164209;28;80410;-66
2021/12/16 10:29:59;;;;;;;10.13;6.05;;;23.40;45.80;;;;;;6155203;28;80209;-67
2021/12/16 10:32:59;;;;;;;10.13;6.15;;;23.40;45.70;;;;;;6151839;28;80444;-66
2021/12/16 10:36:00;;;;;;;10.35;5.93;;;23.40;45.70;;;;;;6153881;28;80880;-65
2021/12/16 10:39:01;;;;;;;8.85;5.68;;;23.40;45.60;;;;;;6157158;28;81669;-65
2021/12/16 10:42:04;;;;;;;12.15;5.53;;;23.40;45.50;;;;;;6155326;28;80561;-66
2021/12/16 10:45:05;;;;;;;9.60;5.75;;;23.40;45.50;;;;;;6158351;28;80515;-64
2021/12/16 10:48:05;;;;;;;9.27;5.80;;;23.40;45.50;;;;;;6156838;28;81780;-65
2021/12/16 10:51:06;;;;;;;12.32;6.50;;;23.40;45.70;;;;;;6150563;28;80096;-65
2021/12/16 10:54:06;;;;;;;8.32;5.47;;;23.50;45.60;;;;;;6149601;28;82386;-66
2021/12/16 10:57:09;;;;;;;12.90;5.60;;;23.50;45.70;;;;;;6151827;28;81076;-65
2021/12/16 11:00:10;;;;;;;9.27;5.63;;;23.50;45.70;;;;;;6156092;28;82176;-65
2021/12/16 11:03:11;;;;;;;9.75;5.93;;;23.50;45.50;;;;;;6155879;28;82729;-64
2021/12/16 11:06:11;;;;;;;8.73;5.05;;;23.50;45.50;;;;;;6160215;28;81104;-66
2021/12/16 11:09:12;;;;;;;9.30;5.43;;;23.40;45.40;;;;;;6156180;28;80971;-65
2021/12/16 11:12:12;;;;;;;7.20;5.10;;;23.40;45.50;;;;;;6160356;28;80650;-66
2021/12/16 11:15:13;;;;;;;9.02;5.65;;;23.40;45.40;;;;;;6156352;28;80421;-65
2021/12/16 11:18:14;;;;;;;7.95;5.35;;;23.40;45.40;;;;;;6158785;28;81261;-65
2021/12/16 11:21:15;;;;;;;10.05;5.30;;;23.30;45.50;;;;;;6151970;28;81180;-66
2021/12/16 11:24:16;;;;;;;7.57;5.00;;;23.40;45.60;;;;;;6159502;28;80635;-65
2021/12/16 11:27:16;;;;;;;7.57;4.85;;;23.30;45.40;;;;;;6158702;28;80673;-66
2021/12/16 11:30:17;;;;;;;6.60;4.97;;;23.40;45.40;;;;;;6160059;28;80763;-65
2021/12/16 11:33:18;;;;;;;7.45;5.35;;;23.40;45.30;;;;;;6162570;28;80361;-64
2021/12/16 11:36:18;;;;;;;6.90;4.72;;;23.40;45.40;;;;;;6160959;28;80824;-65
2021/12/16 11:39:19;;;;;;;7.93;5.03;;;23.40;45.20;;;;;;6164539;28;80636;-65
2021/12/16 11:42:19;;;;;;;6.57;4.50;;;23.40;45.20;;;;;;6170317;28;80116;-64
2021/12/16 11:45:20;;;;;;;8.43;4.80;;;23.40;45.90;;;;;;6161582;28;80769;-66
2021/12/16 11:48:20;;;;;;;7.30;5.20;;;23.40;45.30;;;;;;6168685;28;80316;-66
2021/12/16 11:51:21;;;;;;;7.03;4.50;;;23.40;45.50;;;;;;6160284;28;81546;-65
2021/12/16 11:54:21;;;;;;;7.03;4.50;;;23.40;45.40;;;;;;6159938;28;81462;-65
2021/12/16 11:57:25;;;;;;;7.30;4.63;;;23.40;45.30;;;;;;6161264;28;80538;-66
2021/12/16 12:00:25;;;;;;;6.47;4.28;;;23.40;45.00;;;;;;6163547;28;81103;-65
2021/12/16 12:03:26;;;;;;;5.97;4.40;;;23.50;45.10;;;;;;6162080;28;81414;-67
2021/12/16 12:06:27;;;;;;;8.20;4.43;;;23.50;45.00;;;;;;6164409;28;80726;-65
2021/12/16 12:09:27;;;;;;;6.03;4.20;;;23.50;45.00;;;;;;6163510;28;80477;-65
2021/12/16 12:12:28;;;;;;;6.90;4.15;;;23.50;45.00;;;;;;6163378;27;80561;-65
2021/12/16 12:15:28;;;;;;;6.45;4.40;;;23.40;44.80;;;;;;6162481;28;80624;-65
2021/12/16 12:18:29;;;;;;;5.35;4.00;;;23.50;44.90;;;;;;6162857;28;80807;-65
2021/12/16 12:21:29;;;;;;;10.80;4.70;;;23.40;44.80;;;;;;6155718;28;81742;-65
2021/12/16 12:24:32;;;;;;;6.95;4.72;;;23.40;44.80;;;;;;6155423;28;81029;-65
2021/12/16 12:27:32;;;;;;;8.48;5.13;;;23.40;44.90;;;;;;6161578;28;81371;-65
2021/12/16 12:30:33;;;;;;;4.50;3.50;;;23.40;44.80;;;;;;6161208;28;80467;-65
2021/12/16 12:33:33;;;;;;;8.20;4.10;;;23.40;44.80;;;;;;6161500;28;80552;-65
2021/12/16 12:36:34;;;;;;;7.72;4.20;;;23.40;44.70;;;;;;6163952;28;80805;-66
2021/12/16 12:39:36;;;;;;;7.85;4.15;;;23.40;44.70;;;;;;6156863;28;83084;-66
2021/12/16 12:42:37;;;;;;;6.90;4.25;;;23.40;44.70;;;;;;6163269;28;80373;-65
2021/12/16 12:45:37;;;;;;;6.43;4.63;;;23.40;44.70;;;;;;6161573;28;80627;-64
2021/12/16 12:48:38;;;;;;;5.63;4.18;;;23.30;44.90;;;;;;6160022;28;82588;-66
2021/12/16 12:51:38;;;;;;;8.00;4.18;;;23.30;45.00;;;;;;6174576;28;82013;-65
2021/12/16 12:54:39;;;;;;;6.20;4.05;;;23.30;45.20;;;;;;6158160;28;80803;-68
2021/12/16 12:57:40;;;;;;;7.85;4.88;;;23.30;45.30;;;;;;6159093;28;81626;-65
2021/12/16 13:00:40;;;;;;;6.93;4.38;;;23.40;45.40;;;;;;6157003;28;81223;-67
2021/12/16 13:03:41;;;;;;;7.88;4.95;;;23.30;45.50;;;;;;6170736;28;81204;-67
2021/12/16 13:06:41;;;;;;;5.60;3.88;;;23.30;45.80;;;;;;6158956;28;86095;-68
2021/12/16 13:09:42;;;;;;;7.75;3.70;;;23.30;46.50;;;;;;6159581;28;81536;-68
2021/12/16 13:12:59;;;;;;;10.07;4.43;;;23.30;46.80;;;;;;6159696;28;80935;-68
2021/12/16 13:26:42;;;;;;;6.78;4.13;;;23.20;47.90;;;;;;6162783;28;80860;-68
2021/12/16 13:29:22;;;;;;;6.38;4.20;;;23.20;47.90;;;;;;6152539;28;83278;-66
2021/12/16 13:32:28;;;;;;;7.70;4.40;;;23.20;48.20;;;;;;6161248;28;80938;-66
2021/12/16 13:35:35;;;;;;;6.40;4.10;;;23.30;48.30;;;;;;6159862;28;80448;-66
2021/12/16 13:38:35;;;;;;;7.82;4.05;;;23.30;48.30;;;;;;6161576;28;81003;-69
2021/12/16 13:41:36;;;;;;;5.72;4.07;;;23.20;48.40;;;;;;6160406;28;80665;-66
2021/12/16 13:44:38;;;;;;;5.55;4.05;;;23.20;48.60;;;;;;6160001;28;80415;-66
2021/12/16 14:07:12;;;;;;;7.55;4.90;;;23.10;48.90;;;;;;6152034;28;81058;-67
2021/12/16 14:10:20;;;;;;;5.47;4.35;;;23.20;48.90;;;;;;6157572;28;80360;-65
2021/12/16 14:23:14;;;;;;;8.57;5.25;;;23.20;48.70;;;;;;6149832;28;80429;-69
2021/12/16 14:34:00;;;;;;;7.90;5.03;;;23.10;49.10;;;;;;6156763;28;80330;-64
2021/12/16 14:46:02;;;;;;;6.55;4.78;;;23.10;48.40;;;;;;6150931;28;80083;-64
2021/12/16 14:49:02;;;;;;;7.00;4.70;;;23.10;48.30;;;;;;6158650;28;80321;-64
2021/12/16 14:52:03;;;;;;;7.57;5.25;;;23.10;48.10;;;;;;6159975;28;81634;-64
2021/12/16 14:55:03;;;;;;;7.57;4.97;;;23.00;48.10;;;;;;6154334;28;81587;-66
2021/12/16 14:58:05;;;;;;;7.40;4.88;;;23.00;48.20;;;;;;6158644;28;81485;-64
2021/12/16 15:01:07;;;;;;;7.05;4.82;;;23.00;48.30;;;;;;6159807;28;83095;-64
2021/12/16 15:04:07;;;;;;;10.00;5.80;;;23.00;48.30;;;;;;6160395;27;80414;-64
2021/12/16 15:07:11;;;;;;;11.57;5.72;;;23.00;48.30;;;;;;6164050;28;80423;-62
2021/12/16 15:10:14;;;;;;;15.10;5.65;;;23.10;48.70;;;;;;6159415;28;80406;-64
2021/12/16 15:13:25;;;;;;;9.20;5.25;;;23.10;49.20;;;;;;6160305;28;81174;-64
2021/12/16 15:16:51;;;;;;;10.60;5.50;;;23.20;49.70;;;;;;6161561;28;80996;-63
2021/12/16 15:40:10;;;;;;;14.18;6.28;;;23.40;50.70;;;;;;6166744;28;81001;-64
2021/12/16 15:43:11;;;;;;;9.02;5.70;;;23.40;50.70;;;;;;6178675;28;81008;-64
2021/12/16 15:46:12;;;;;;;9.52;5.40;;;23.50;50.70;;;;;;6170390;28;80752;-66
2021/12/16 15:49:12;;;;;;;9.55;5.85;;;23.50;50.80;;;;;;6156055;28;80697;-63
2021/12/16 15:52:13;;;;;;;11.82;5.85;;;23.50;50.90;;;;;;6165007;28;80294;-63
2021/12/16 15:55:15;;;;;;;11.43;5.85;;;23.50;51.00;;;;;;6173441;28;80571;-64
2021/12/16 15:58:15;;;;;;;12.05;6.18;;;23.50;51.00;;;;;;6165764;28;80610;-63
2021/12/16 16:01:16;;;;;;;7.13;5.13;;;23.50;51.00;;;;;;6160275;28;81438;-63
2021/12/16 16:04:16;;;;;;;10.50;5.82;;;23.50;50.90;;;;;;6163666;28;80440;-64
2021/12/16 16:07:18;;;;;;;9.27;5.82;;;23.50;50.80;;;;;;6164224;28;80455;-63
2021/12/16 16:10:19;;;;;;;10.90;4.90;;;23.50;51.00;;;;;;6166541;28;80588;-62
2021/12/16 16:13:19;;;;;;;8.30;5.93;;;23.50;51.10;;;;;;6160984;28;81498;-63
2021/12/16 16:16:20;;;;;;;8.75;5.15;;;23.50;51.30;;;;;;6166257;28;80199;-64
2021/12/16 16:19:20;;;;;;;8.73;5.80;;;23.50;51.10;;;;;;6166143;28;80633;-63
2021/12/16 16:22:21;;;;;;;8.38;5.35;;;23.50;51.20;;;;;;6165273;28;80322;-63
2021/12/16 16:25:21;;;;;;;11.95;5.22;;;23.50;51.20;;;;;;6161329;28;80984;-63
2021/12/16 16:28:22;;;;;;;10.05;5.32;;;23.40;51.60;;;;;;6167610;28;80653;-63
2021/12/16 16:31:22;;;;;;;9.02;6.40;;;23.40;51.50;;;;;;6163972;28;80526;-64
2021/12/16 16:34:23;;;;;;;9.55;6.07;;;23.40;51.50;;;;;;6164056;28;80573;-63
2021/12/16 16:37:23;;;;;;;8.32;5.63;;;23.40;51.60;;;;;;6166821;28;80310;-66
2021/12/16 16:40:24;;;;;;;9.05;5.85;;;23.40;51.70;;;;;;6164413;28;80685;-65
2021/12/16 16:43:24;;;;;;;9.60;6.28;;;23.40;51.40;;;;;;6160627;28;80375;-66
2021/12/16 16:46:29;;;;;;;11.20;4.90;;;23.40;51.70;;;;;;6161072;28;80915;-66
2021/12/16 16:49:30;;;;;;;9.35;4.75;;;23.50;52.10;;;;;;6151933;28;80745;-68
2021/12/16 16:52:30;;;;;;;8.05;5.75;;;23.50;52.00;;;;;;6161284;28;81684;-65
2021/12/16 16:55:33;;;;;;;6.35;4.40;;;23.50;52.50;;;;;;6160228;28;81502;-68
2021/12/16 16:58:34;;;;;;;8.05;4.85;;;23.50;52.60;;;;;;6193897;28;80651;-69
2021/12/16 17:01:34;;;;;;;8.30;4.68;;;23.50;52.80;;;;;;6156021;28;80483;-67
2021/12/16 17:04:35;;;;;;;9.25;4.90;;;23.50;52.80;;;;;;6162536;28;80388;-69
2021/12/16 17:07:35;;;;;;;10.70;5.05;;;23.50;52.90;;;;;;6145188;28;81619;-67
2021/12/16 17:10:39;;;;;;;5.22;3.72;;;23.50;53.60;;;;;;6161790;28;80578;-66
2021/12/16 17:13:52;;;;;;;6.57;4.03;;;23.40;53.40;;;;;;6160603;28;81471;-67
2021/12/16 17:17:13;;;;;;;7.72;4.10;;;23.40;53.70;;;;;;6159847;28;81476;-67
2021/12/16 17:20:15;;;;;;;7.35;4.05;;;23.40;53.80;;;;;;6145045;28;80432;-68
2021/12/16 17:23:15;;;;;;;6.43;4.35;;;23.40;53.90;;;;;;6161195;28;80210;-69
2021/12/16 17:26:16;;;;;;;6.63;4.35;;;23.40;53.50;;;;;;6159512;28;81955;-67
2021/12/16 17:29:18;;;;;;;6.40;4.25;;;23.40;53.60;;;;;;6161769;28;80626;-67
2021/12/16 17:32:19;;;;;;;6.50;4.43;;;23.40;53.80;;;;;;6161918;28;80728;-67
2021/12/16 17:35:19;;;;;;;11.80;5.30;;;23.40;53.80;;;;;;6160463;28;81666;-68
2021/12/16 17:38:20;;;;;;;4.80;3.80;;;23.40;53.30;;;;;;6160342;28;80703;-66
2021/12/16 17:41:20;;;;;;;6.63;4.72;;;23.40;53.40;;;;;;6160626;28;80445;-69
2021/12/16 17:44:21;;;;;;;8.40;4.65;;;23.40;53.40;;;;;;6162334;28;82453;-69
2021/12/16 17:47:21;;;;;;;6.10;4.40;;;23.50;52.50;;;;;;6160477;28;80628;-69
2021/12/16 17:50:22;;;;;;;7.28;5.00;;;23.50;53.00;;;;;;6152485;28;81018;-67
2021/12/16 17:53:22;;;;;;;10.23;4.50;;;23.50;52.50;;;;;;6158369;28;80462;-68
2021/12/16 17:56:23;;;;;;;8.38;5.50;;;23.50;52.70;;;;;;6159629;28;81517;-67
2021/12/16 17:59:23;;;;;;;5.38;3.58;;;23.50;52.30;;;;;;6153448;28;80432;-69
2021/12/16 18:02:24;;;;;;;6.65;4.97;;;23.50;52.90;;;;;;6150617;28;80613;-69
2021/12/16 18:05:24;;;;;;;10.00;4.57;;;23.50;52.20;;;;;;6159761;28;80590;-71
2021/12/16 18:08:25;;;;;;;7.93;5.63;;;23.50;51.80;;;;;;6159038;28;80454;-68
2021/12/16 18:11:26;;;;;;;7.13;5.22;;;23.50;51.70;;;;;;6154557;28;80902;-69
2021/12/16 18:14:43;;;;;;;11.80;5.70;;;23.50;50.70;;;;;;6157551;28;83297;-66
2021/12/16 18:17:44;;;;;;;8.18;5.47;;;23.50;50.30;;;;;;6157206;28;83291;-66
2021/12/16 18:20:44;;;;;;;9.20;4.35;;;23.50;50.00;;;;;;6159630;28;81534;-67
2021/12/16 18:23:45;;;;;;;7.82;5.05;;;23.40;49.80;;;;;;6151156;28;80450;-66
2021/12/16 18:26:45;;;;;;;8.68;4.80;;;23.40;49.80;;;;;;6153890;28;80480;-67
2021/12/16 18:29:46;;;;;;;7.45;4.57;;;23.40;50.30;;;;;;6159947;28;80527;-65
2021/12/16 18:32:46;;;;;;;10.05;4.60;;;23.50;50.90;;;;;;6156316;28;80499;-68
2021/12/16 18:35:47;;;;;;;9.57;4.63;;;23.50;50.20;;;;;;6155535;28;81915;-66
2021/12/16 18:38:47;;;;;;;8.38;5.30;;;23.50;49.80;;;;;;6162698;28;82489;-69
2021/12/16 18:41:48;;;;;;;6.80;4.47;;;23.50;49.70;;;;;;6148353;28;82281;-68
2021/12/16 18:44:49;;;;;;;10.55;4.32;;;23.50;50.10;;;;;;6153240;28;81272;-66
2021/12/16 18:48:16;;;;;;;5.75;4.55;;;23.50;50.10;;;;;;6149869;28;81849;-67
2021/12/16 18:54:29;;;;;;;7.72;4.15;;;23.50;50.00;;;;;;6154648;28;81734;-69
2021/12/16 18:57:29;;;;;;;;;;;23.50;49.80;;;;;;6156879;28;80504;-68
2021/12/16 19:00:30;;;;;;;7.78;4.65;;;23.50;49.50;;;;;;6164170;28;82947;-70
2021/12/16 19:03:30;;;;;;;7.47;4.88;;;23.50;49.40;;;;;;6158553;28;80095;-69
2021/12/16 19:06:31;;;;;;;7.72;4.70;;;23.60;49.20;;;;;;6169370;28;83599;-70
2021/12/16 19:09:31;;;;;;;6.38;4.13;;;23.60;48.50;;;;;;6159037;28;81288;-70
2021/12/16 19:12:32;;;;;;;10.27;4.50;;;23.50;48.10;;;;;;6176453;28;80915;-68
2021/12/16 19:15:32;;;;;;;5.93;4.07;;;23.50;48.20;;;;;;6158792;28;80183;-68
2021/12/16 19:18:33;;;;;;;7.82;3.97;;;23.50;48.20;;;;;;6176278;28;80549;-68
2021/12/16 19:21:34;;;;;;;10.25;4.30;;;23.50;48.10;;;;;;6160179;28;80349;-70
2021/12/16 19:24:35;;;;;;;18.10;4.50;;;23.50;48.10;;;;;;6161185;28;83025;-67
2021/12/16 19:27:35;;;;;;;4.80;4.30;;;23.50;48.40;;;;;;6167400;27;81386;-70
2021/12/16 19:30:36;;;;;;;5.90;3.95;;;23.50;48.30;;;;;;6158914;28;84315;-68
2021/12/16 19:33:37;;;;;;;5.70;3.75;;;23.50;48.10;;;;;;6163986;27;81197;-67
2021/12/16 19:36:37;;;;;;;6.10;4.00;;;23.50;48.20;;;;;;6160001;28;81559;-67
2021/12/16 19:39:38;;;;;;;7.53;3.65;;;23.50;48.00;;;;;;6164244;28;80708;-67
2021/12/16 19:42:38;;;;;;;7.75;3.60;;;23.50;47.80;;;;;;6159741;28;80438;-66
2021/12/16 19:45:39;;;;;;;6.78;4.47;;;23.40;47.70;;;;;;6176119;27;80605;-68
2021/12/16 19:48:39;;;;;;;7.88;4.10;;;23.40;47.30;;;;;;6163855;28;80057;-69
2021/12/16 19:51:40;;;;;;;8.45;4.35;;;23.40;47.20;;;;;;6173854;28;80254;-68
2021/12/16 19:54:41;;;;;;;24.38;4.07;;;23.40;47.20;;;;;;6165658;27;80999;-66
2021/12/16 19:57:46;;;;;;;8.68;4.43;;;23.40;47.00;;;;;;6174498;28;85017;-68
2021/12/16 20:00:49;;;;;;;7.45;4.03;;;23.40;46.80;;;;;;6159331;28;81592;-67
2021/12/16 20:03:50;;;;;;;9.27;4.22;;;23.30;47.10;;;;;;6162339;28;81172;-67